sensor_id;sensor_type;location;lat;lon;timestamp;temperature;humidity
13148;DHT22;6639;50.956;4.242;2023-07-31T00:01:22;21.90;99.90
13148;DHT22;6639;50.956;4.242;2023-07-31T00:03:49;22.10;99.90
13148;DHT22;6639;50.956;4.242;2023-07-31T00:06:16;22.30;99.90
13148;DHT22;6639;50.956;4.242;2023-07-31T00:08:43;22.10;99.90
13148;DHT22;6639;50.956;4.242;2023-07-31T00:11:11;22.00;99.90
13148;DHT22;6639;50.956;4.242;2023-07-31T00:13:38;21.90;99.90
13148;DHT22;6639;50.956;4.242;2023-07-31T00:16:06;22.20;99.90
13148;DHT22;6639;50.956;4.242;2023-07-31T00:18:33;22.20;99.90
13148;DHT22;6639;50.956;4.242;2023-07-31T00:20:59;22.30;99.90
13148;DHT22;6639;50.956;4.242;2023-07-31T00:23:26;22.50;99.90
13148;DHT22;6639;50.956;4.242;2023-07-31T00:25:53;22.20;99.90
13148;DHT22;6639;50.956;4.242;2023-07-31T00:28:21;22.30;99.90
13148;DHT22;6639;50.956;4.242;2023-07-31T00:30:48;22.20;99.90
13148;DHT22;6639;50.956;4.242;2023-07-31T00:33:15;22.10;99.90
13148;DHT22;6639;50.956;4.242;2023-07-31T00:35:42;22.00;99.90
13148;DHT22;6639;50.956;4.242;2023-07-31T00:38:09;22.50;99.90
13148;DHT22;6639;50.956;4.242;2023-07-31T00:40:36;22.60;99.90
13148;DHT22;6639;50.956;4.242;2023-07-31T00:43:03;22.90;99.90
13148;DHT22;6639;50.956;4.242;2023-07-31T00:45:32;22.90;99.90
13148;DHT22;6639;50.956;4.242;2023-07-31T00:48:00;22.80;99.90
13148;DHT22;6639;50.956;4.242;2023-07-31T00:50:27;22.70;99.90
13148;DHT22;6639;50.956;4.242;2023-07-31T00:52:54;22.70;99.90
13148;DHT22;6639;50.956;4.242;2023-07-31T00:55:21;22.70;99.90
13148;DHT22;6639;50.956;4.242;2023-07-31T00:57:49;22.60;99.90
13148;DHT22;6639;50.956;4.242;2023-07-31T01:00:17;22.50;99.90
13148;DHT22;6639;50.956;4.242;2023-07-31T01:02:45;22.50;99.90
13148;DHT22;6639;50.956;4.242;2023-07-31T01:05:12;22.40;99.90
13148;DHT22;6639;50.956;4.242;2023-07-31T01:07:56;22.40;99.90
13148;DHT22;6639;50.956;4.242;2023-07-31T01:10:30;22.10;99.90
13148;DHT22;6639;50.956;4.242;2023-07-31T01:13:02;22.30;99.90
13148;DHT22;6639;50.956;4.242;2023-07-31T01:15:29;22.20;99.90
13148;DHT22;6639;50.956;4.242;2023-07-31T01:17:58;22.30;99.90
13148;DHT22;6639;50.956;4.242;2023-07-31T01:20:26;22.40;99.90
13148;DHT22;6639;50.956;4.242;2023-07-31T01:23:21;22.50;99.90
13148;DHT22;6639;50.956;4.242;2023-07-31T01:26:03;22.40;99.90
13148;DHT22;6639;50.956;4.242;2023-07-31T01:28:40;22.80;99.90
13148;DHT22;6639;50.956;4.242;2023-07-31T01:31:14;22.90;99.90
13148;DHT22;6639;50.956;4.242;2023-07-31T01:33:41;22.60;99.90
13148;DHT22;6639;50.956;4.242;2023-07-31T01:36:09;22.60;99.90
13148;DHT22;6639;50.956;4.242;2023-07-31T01:38:37;22.80;99.90
13148;DHT22;6639;50.956;4.242;2023-07-31T01:41:05;22.90;99.90
13148;DHT22;6639;50.956;4.242;2023-07-31T01:43:32;22.50;99.90
13148;DHT22;6639;50.956;4.242;2023-07-31T01:45:59;22.60;99.90
13148;DHT22;6639;50.956;4.242;2023-07-31T01:48:25;22.60;99.90
13148;DHT22;6639;50.956;4.242;2023-07-31T01:50:52;22.70;99.90
13148;DHT22;6639;50.956;4.242;2023-07-31T01:53:19;22.50;99.90
13148;DHT22;6639;50.956;4.242;2023-07-31T01:55:46;22.40;99.90
13148;DHT22;6639;50.956;4.242;2023-07-31T01:58:14;22.50;99.90
13148;DHT22;6639;50.956;4.242;2023-07-31T02:00:41;22.40;99.90
13148;DHT22;6639;50.956;4.242;2023-07-31T02:03:08;22.60;99.90
13148;DHT22;6639;50.956;4.242;2023-07-31T02:05:35;22.50;99.90
13148;DHT22;6639;50.956;4.242;2023-07-31T02:08:02;22.30;99.90
13148;DHT22;6639;50.956;4.242;2023-07-31T02:10:29;22.60;99.90
13148;DHT22;6639;50.956;4.242;2023-07-31T02:12:56;22.80;99.90
13148;DHT22;6639;50.956;4.242;2023-07-31T02:15:24;22.90;99.90
13148;DHT22;6639;50.956;4.242;2023-07-31T02:17:51;22.60;99.90
13148;DHT22;6639;50.956;4.242;2023-07-31T02:20:18;22.40;99.90
13148;DHT22;6639;50.956;4.242;2023-07-31T02:22:45;22.50;99.90
13148;DHT22;6639;50.956;4.242;2023-07-31T02:25:12;22.50;99.90
13148;DHT22;6639;50.956;4.242;2023-07-31T02:27:39;22.60;99.90
13148;DHT22;6639;50.956;4.242;2023-07-31T02:30:07;22.60;99.90
13148;DHT22;6639;50.956;4.242;2023-07-31T02:32:36;22.60;99.90
13148;DHT22;6639;50.956;4.242;2023-07-31T02:35:03;22.70;99.90
13148;DHT22;6639;50.956;4.242;2023-07-31T02:37:30;22.70;99.90
13148;DHT22;6639;50.956;4.242;2023-07-31T02:39:57;22.50;99.90
13148;DHT22;6639;50.956;4.242;2023-07-31T02:42:24;22.40;99.90
13148;DHT22;6639;50.956;4.242;2023-07-31T02:44:51;22.50;99.90
13148;DHT22;6639;50.956;4.242;2023-07-31T02:47:21;22.60;99.90
13148;DHT22;6639;50.956;4.242;2023-07-31T02:49:49;22.90;99.90
13148;DHT22;6639;50.956;4.242;2023-07-31T02:52:16;23.10;99.90
13148;DHT22;6639;50.956;4.242;2023-07-31T02:54:43;23.00;99.90
13148;DHT22;6639;50.956;4.242;2023-07-31T02:57:10;23.10;99.90
13148;DHT22;6639;50.956;4.242;2023-07-31T02:59:37;23.10;99.90
13148;DHT22;6639;50.956;4.242;2023-07-31T03:02:04;23.00;99.90
13148;DHT22;6639;50.956;4.242;2023-07-31T03:04:31;22.80;99.90
13148;DHT22;6639;50.956;4.242;2023-07-31T03:06:59;22.70;99.90
13148;DHT22;6639;50.956;4.242;2023-07-31T03:09:26;22.40;99.90
13148;DHT22;6639;50.956;4.242;2023-07-31T03:11:53;22.30;99.90
13148;DHT22;6639;50.956;4.242;2023-07-31T03:14:20;22.10;99.90
13148;DHT22;6639;50.956;4.242;2023-07-31T03:16:47;22.00;99.90
13148;DHT22;6639;50.956;4.242;2023-07-31T03:19:14;22.10;99.90
13148;DHT22;6639;50.956;4.242;2023-07-31T03:21:41;22.10;99.90
13148;DHT22;6639;50.956;4.242;2023-07-31T03:24:09;22.00;99.90
13148;DHT22;6639;50.956;4.242;2023-07-31T03:26:37;22.00;99.90
13148;DHT22;6639;50.956;4.242;2023-07-31T03:29:07;22.10;99.90
13148;DHT22;6639;50.956;4.242;2023-07-31T03:31:33;22.20;99.90
13148;DHT22;6639;50.956;4.242;2023-07-31T03:34:00;22.30;99.90
13148;DHT22;6639;50.956;4.242;2023-07-31T03:36:27;22.30;99.90
13148;DHT22;6639;50.956;4.242;2023-07-31T03:38:54;22.40;99.90
13148;DHT22;6639;50.956;4.242;2023-07-31T03:41:22;22.40;99.90
13148;DHT22;6639;50.956;4.242;2023-07-31T03:43:51;22.50;99.90
13148;DHT22;6639;50.956;4.242;2023-07-31T03:46:18;22.50;99.90
13148;DHT22;6639;50.956;4.242;2023-07-31T03:48:45;22.30;99.90
13148;DHT22;6639;50.956;4.242;2023-07-31T03:51:12;22.20;99.90
13148;DHT22;6639;50.956;4.242;2023-07-31T03:53:39;22.30;99.90
13148;DHT22;6639;50.956;4.242;2023-07-31T03:56:06;22.10;99.90
13148;DHT22;6639;50.956;4.242;2023-07-31T03:58:34;22.30;99.90
13148;DHT22;6639;50.956;4.242;2023-07-31T04:01:02;22.50;99.90
13148;DHT22;6639;50.956;4.242;2023-07-31T04:03:29;22.60;99.90
13148;DHT22;6639;50.956;4.242;2023-07-31T04:05:56;22.60;99.90
13148;DHT22;6639;50.956;4.242;2023-07-31T04:08:23;22.70;99.90
13148;DHT22;6639;50.956;4.242;2023-07-31T04:10:50;22.90;99.90
13148;DHT22;6639;50.956;4.242;2023-07-31T04:13:17;23.20;99.90
13148;DHT22;6639;50.956;4.242;2023-07-31T04:15:49;23.20;99.90
13148;DHT22;6639;50.956;4.242;2023-07-31T04:18:16;23.50;99.90
13148;DHT22;6639;50.956;4.242;2023-07-31T04:20:44;23.40;99.90
13148;DHT22;6639;50.956;4.242;2023-07-31T04:23:10;23.20;99.90
13148;DHT22;6639;50.956;4.242;2023-07-31T04:25:37;23.00;99.90
13148;DHT22;6639;50.956;4.242;2023-07-31T04:28:04;23.00;99.90
13148;DHT22;6639;50.956;4.242;2023-07-31T04:30:31;22.80;99.90
13148;DHT22;6639;50.956;4.242;2023-07-31T04:32:59;23.10;99.90
13148;DHT22;6639;50.956;4.242;2023-07-31T04:35:27;22.80;99.90
13148;DHT22;6639;50.956;4.242;2023-07-31T04:37:54;22.80;99.90
13148;DHT22;6639;50.956;4.242;2023-07-31T04:40:21;22.60;99.90
13148;DHT22;6639;50.956;4.242;2023-07-31T04:42:48;22.50;99.90
13148;DHT22;6639;50.956;4.242;2023-07-31T04:45:15;22.50;99.90
13148;DHT22;6639;50.956;4.242;2023-07-31T04:47:42;23.10;99.90
13148;DHT22;6639;50.956;4.242;2023-07-31T04:50:10;22.70;99.90
13148;DHT22;6639;50.956;4.242;2023-07-31T04:52:37;22.30;99.90
13148;DHT22;6639;50.956;4.242;2023-07-31T04:55:04;22.20;99.90
13148;DHT22;6639;50.956;4.242;2023-07-31T04:57:31;22.30;99.90
13148;DHT22;6639;50.956;4.242;2023-07-31T04:59:58;22.40;99.90
13148;DHT22;6639;50.956;4.242;2023-07-31T05:02:25;22.30;99.90
13148;DHT22;6639;50.956;4.242;2023-07-31T05:04:52;22.10;99.90
13148;DHT22;6639;50.956;4.242;2023-07-31T05:07:20;22.10;99.90
13148;DHT22;6639;50.956;4.242;2023-07-31T05:09:47;21.80;99.90
13148;DHT22;6639;50.956;4.242;2023-07-31T05:12:14;21.70;99.90
13148;DHT22;6639;50.956;4.242;2023-07-31T05:14:41;21.80;99.90
13148;DHT22;6639;50.956;4.242;2023-07-31T05:17:08;21.40;99.90
13148;DHT22;6639;50.956;4.242;2023-07-31T05:19:34;21.60;99.90
13148;DHT22;6639;50.956;4.242;2023-07-31T05:22:02;21.50;99.90
13148;DHT22;6639;50.956;4.242;2023-07-31T05:24:30;21.60;99.90
13148;DHT22;6639;50.956;4.242;2023-07-31T05:26:57;21.60;99.90
13148;DHT22;6639;50.956;4.242;2023-07-31T05:29:24;21.50;99.90
13148;DHT22;6639;50.956;4.242;2023-07-31T05:31:50;21.50;99.90
13148;DHT22;6639;50.956;4.242;2023-07-31T05:34:17;21.70;99.90
13148;DHT22;6639;50.956;4.242;2023-07-31T05:36:44;21.80;99.90
13148;DHT22;6639;50.956;4.242;2023-07-31T05:39:11;21.60;99.90
13148;DHT22;6639;50.956;4.242;2023-07-31T05:41:40;21.70;99.90
13148;DHT22;6639;50.956;4.242;2023-07-31T05:44:06;21.90;99.90
13148;DHT22;6639;50.956;4.242;2023-07-31T05:46:33;21.70;99.90
13148;DHT22;6639;50.956;4.242;2023-07-31T05:49:00;21.80;99.90
13148;DHT22;6639;50.956;4.242;2023-07-31T05:51:27;22.00;99.90
13148;DHT22;6639;50.956;4.242;2023-07-31T05:53:54;21.80;99.90
13148;DHT22;6639;50.956;4.242;2023-07-31T05:56:21;21.70;99.90
13148;DHT22;6639;50.956;4.242;2023-07-31T05:58:50;21.90;99.90
13148;DHT22;6639;50.956;4.242;2023-07-31T06:01:17;21.90;99.90
13148;DHT22;6639;50.956;4.242;2023-07-31T06:03:44;21.70;99.90
13148;DHT22;6639;50.956;4.242;2023-07-31T06:06:11;21.60;99.90
13148;DHT22;6639;50.956;4.242;2023-07-31T06:08:39;21.40;99.90
13148;DHT22;6639;50.956;4.242;2023-07-31T06:11:06;21.60;99.90
13148;DHT22;6639;50.956;4.242;2023-07-31T06:13:34;21.70;99.90
13148;DHT22;6639;50.956;4.242;2023-07-31T06:16:03;21.60;99.90
13148;DHT22;6639;50.956;4.242;2023-07-31T06:18:32;21.60;99.90
13148;DHT22;6639;50.956;4.242;2023-07-31T06:20:58;21.60;99.90
13148;DHT22;6639;50.956;4.242;2023-07-31T06:23:26;21.60;99.90
13148;DHT22;6639;50.956;4.242;2023-07-31T06:25:52;21.60;99.90
13148;DHT22;6639;50.956;4.242;2023-07-31T06:28:20;21.60;99.90
13148;DHT22;6639;50.956;4.242;2023-07-31T06:30:47;21.80;99.90
13148;DHT22;6639;50.956;4.242;2023-07-31T06:33:15;21.80;99.90
13148;DHT22;6639;50.956;4.242;2023-07-31T06:35:42;21.50;99.90
13148;DHT22;6639;50.956;4.242;2023-07-31T06:38:09;21.70;99.90
13148;DHT22;6639;50.956;4.242;2023-07-31T06:40:36;21.90;99.90
13148;DHT22;6639;50.956;4.242;2023-07-31T06:43:03;21.90;99.90
13148;DHT22;6639;50.956;4.242;2023-07-31T06:45:33;21.80;99.90
13148;DHT22;6639;50.956;4.242;2023-07-31T06:48:01;22.10;99.90
13148;DHT22;6639;50.956;4.242;2023-07-31T06:50:30;22.30;99.90
13148;DHT22;6639;50.956;4.242;2023-07-31T06:52:57;22.20;99.90
13148;DHT22;6639;50.956;4.242;2023-07-31T06:55:25;21.90;99.90
13148;DHT22;6639;50.956;4.242;2023-07-31T06:57:53;22.10;99.90
13148;DHT22;6639;50.956;4.242;2023-07-31T07:00:21;22.00;99.90
13148;DHT22;6639;50.956;4.242;2023-07-31T07:02:49;21.80;99.90
13148;DHT22;6639;50.956;4.242;2023-07-31T07:05:16;21.80;99.90
13148;DHT22;6639;50.956;4.242;2023-07-31T07:07:45;21.90;99.90
13148;DHT22;6639;50.956;4.242;2023-07-31T07:10:12;21.90;99.90
13148;DHT22;6639;50.956;4.242;2023-07-31T07:12:39;21.90;99.90
13148;DHT22;6639;50.956;4.242;2023-07-31T07:15:06;22.10;99.90
13148;DHT22;6639;50.956;4.242;2023-07-31T07:17:33;22.20;99.90
13148;DHT22;6639;50.956;4.242;2023-07-31T07:20:00;22.00;99.90
13148;DHT22;6639;50.956;4.242;2023-07-31T07:22:29;21.90;99.90
13148;DHT22;6639;50.956;4.242;2023-07-31T07:24:57;22.00;99.90
13148;DHT22;6639;50.956;4.242;2023-07-31T07:27:24;21.90;99.90
13148;DHT22;6639;50.956;4.242;2023-07-31T07:29:51;21.90;99.90
13148;DHT22;6639;50.956;4.242;2023-07-31T07:32:20;21.90;99.90
13148;DHT22;6639;50.956;4.242;2023-07-31T07:34:48;22.00;99.90
13148;DHT22;6639;50.956;4.242;2023-07-31T07:37:15;22.10;99.90
13148;DHT22;6639;50.956;4.242;2023-07-31T07:39:42;22.10;99.90
13148;DHT22;6639;50.956;4.242;2023-07-31T07:42:11;22.00;99.90
13148;DHT22;6639;50.956;4.242;2023-07-31T07:44:37;21.90;99.90
13148;DHT22;6639;50.956;4.242;2023-07-31T07:47:05;21.70;99.90
13148;DHT22;6639;50.956;4.242;2023-07-31T07:49:33;21.70;99.90
13148;DHT22;6639;50.956;4.242;2023-07-31T07:52:00;21.50;99.90
13148;DHT22;6639;50.956;4.242;2023-07-31T07:54:27;21.70;99.90
13148;DHT22;6639;50.956;4.242;2023-07-31T07:56:54;22.20;99.90
13148;DHT22;6639;50.956;4.242;2023-07-31T07:59:22;22.00;99.90
13148;DHT22;6639;50.956;4.242;2023-07-31T08:01:49;22.30;99.90
13148;DHT22;6639;50.956;4.242;2023-07-31T08:04:16;22.50;99.90
13148;DHT22;6639;50.956;4.242;2023-07-31T08:06:43;22.50;99.90
13148;DHT22;6639;50.956;4.242;2023-07-31T08:09:10;22.40;99.90
13148;DHT22;6639;50.956;4.242;2023-07-31T08:11:36;22.20;99.90
13148;DHT22;6639;50.956;4.242;2023-07-31T08:14:03;22.40;99.90
13148;DHT22;6639;50.956;4.242;2023-07-31T08:16:32;22.60;99.90
13148;DHT22;6639;50.956;4.242;2023-07-31T08:18:59;22.70;99.90
13148;DHT22;6639;50.956;4.242;2023-07-31T08:21:26;22.70;99.90
13148;DHT22;6639;50.956;4.242;2023-07-31T08:23:52;22.70;99.90
13148;DHT22;6639;50.956;4.242;2023-07-31T08:26:21;22.30;99.90
13148;DHT22;6639;50.956;4.242;2023-07-31T08:28:48;22.10;99.90
13148;DHT22;6639;50.956;4.242;2023-07-31T08:31:15;22.10;99.90
13148;DHT22;6639;50.956;4.242;2023-07-31T08:33:43;22.50;99.90
13148;DHT22;6639;50.956;4.242;2023-07-31T08:36:10;22.50;99.90
13148;DHT22;6639;50.956;4.242;2023-07-31T08:38:37;22.30;99.90
13148;DHT22;6639;50.956;4.242;2023-07-31T08:41:04;22.00;99.90
13148;DHT22;6639;50.956;4.242;2023-07-31T08:43:31;22.00;99.90
13148;DHT22;6639;50.956;4.242;2023-07-31T08:45:59;22.50;99.90
13148;DHT22;6639;50.956;4.242;2023-07-31T08:48:26;22.70;99.90
13148;DHT22;6639;50.956;4.242;2023-07-31T08:50:56;23.00;99.90
13148;DHT22;6639;50.956;4.242;2023-07-31T08:53:23;22.80;99.90
13148;DHT22;6639;50.956;4.242;2023-07-31T08:55:50;22.70;99.90
13148;DHT22;6639;50.956;4.242;2023-07-31T08:58:19;22.60;99.90
13148;DHT22;6639;50.956;4.242;2023-07-31T09:00:46;22.60;99.90
13148;DHT22;6639;50.956;4.242;2023-07-31T09:03:14;22.70;99.90
13148;DHT22;6639;50.956;4.242;2023-07-31T09:05:43;22.80;99.90
13148;DHT22;6639;50.956;4.242;2023-07-31T09:08:13;22.90;99.90
13148;DHT22;6639;50.956;4.242;2023-07-31T09:10:41;23.10;99.90
13148;DHT22;6639;50.956;4.242;2023-07-31T09:13:09;23.20;99.90
13148;DHT22;6639;50.956;4.242;2023-07-31T09:15:36;23.40;99.90
13148;DHT22;6639;50.956;4.242;2023-07-31T09:18:05;23.40;99.90
13148;DHT22;6639;50.956;4.242;2023-07-31T09:20:32;23.40;99.90
13148;DHT22;6639;50.956;4.242;2023-07-31T09:23:06;23.60;99.90
13148;DHT22;6639;50.956;4.242;2023-07-31T09:25:35;23.60;99.90
13148;DHT22;6639;50.956;4.242;2023-07-31T09:28:04;23.40;99.90
13148;DHT22;6639;50.956;4.242;2023-07-31T09:30:32;23.10;99.90
13148;DHT22;6639;50.956;4.242;2023-07-31T09:33:10;23.10;99.90
13148;DHT22;6639;50.956;4.242;2023-07-31T09:35:37;23.00;99.90
13148;DHT22;6639;50.956;4.242;2023-07-31T09:38:07;22.90;99.90
13148;DHT22;6639;50.956;4.242;2023-07-31T09:40:37;23.30;99.90
13148;DHT22;6639;50.956;4.242;2023-07-31T09:43:06;23.10;99.90
13148;DHT22;6639;50.956;4.242;2023-07-31T09:45:35;23.00;99.90
13148;DHT22;6639;50.956;4.242;2023-07-31T09:48:03;23.00;99.90
13148;DHT22;6639;50.956;4.242;2023-07-31T09:50:30;23.00;99.90
13148;DHT22;6639;50.956;4.242;2023-07-31T09:52:56;23.10;99.90
13148;DHT22;6639;50.956;4.242;2023-07-31T09:55:24;23.10;99.90
13148;DHT22;6639;50.956;4.242;2023-07-31T09:57:54;23.10;99.90
13148;DHT22;6639;50.956;4.242;2023-07-31T10:00:23;23.30;99.90
13148;DHT22;6639;50.956;4.242;2023-07-31T10:02:51;23.50;99.90
13148;DHT22;6639;50.956;4.242;2023-07-31T10:05:19;23.40;99.90
13148;DHT22;6639;50.956;4.242;2023-07-31T10:07:51;23.60;99.90
13148;DHT22;6639;50.956;4.242;2023-07-31T10:10:20;23.40;99.90
13148;DHT22;6639;50.956;4.242;2023-07-31T10:12:48;23.30;99.90
13148;DHT22;6639;50.956;4.242;2023-07-31T10:15:17;23.30;99.90
13148;DHT22;6639;50.956;4.242;2023-07-31T10:17:47;23.00;99.90
13148;DHT22;6639;50.956;4.242;2023-07-31T10:20:14;23.30;99.90
13148;DHT22;6639;50.956;4.242;2023-07-31T10:22:43;23.50;99.90
13148;DHT22;6639;50.956;4.242;2023-07-31T10:25:11;23.80;99.90
13148;DHT22;6639;50.956;4.242;2023-07-31T10:27:39;23.70;99.90
13148;DHT22;6639;50.956;4.242;2023-07-31T10:30:08;23.60;99.90
13148;DHT22;6639;50.956;4.242;2023-07-31T10:32:38;23.50;99.90
13148;DHT22;6639;50.956;4.242;2023-07-31T10:35:06;23.70;99.90
13148;DHT22;6639;50.956;4.242;2023-07-31T10:37:37;24.10;99.90
13148;DHT22;6639;50.956;4.242;2023-07-31T10:40:06;24.00;99.90
13148;DHT22;6639;50.956;4.242;2023-07-31T10:42:34;23.90;99.90
13148;DHT22;6639;50.956;4.242;2023-07-31T10:45:04;24.00;99.90
13148;DHT22;6639;50.956;4.242;2023-07-31T10:47:38;23.90;99.90
13148;DHT22;6639;50.956;4.242;2023-07-31T10:50:20;24.20;99.90
13148;DHT22;6639;50.956;4.242;2023-07-31T10:52:47;24.40;99.90
13148;DHT22;6639;50.956;4.242;2023-07-31T10:55:23;24.20;99.90
13148;DHT22;6639;50.956;4.242;2023-07-31T10:57:50;24.10;99.90
13148;DHT22;6639;50.956;4.242;2023-07-31T11:00:22;23.90;99.90
13148;DHT22;6639;50.956;4.242;2023-07-31T11:03:01;24.30;99.90
13148;DHT22;6639;50.956;4.242;2023-07-31T11:05:42;24.60;99.90
13148;DHT22;6639;50.956;4.242;2023-07-31T11:08:13;24.50;99.90
13148;DHT22;6639;50.956;4.242;2023-07-31T11:10:41;24.50;99.90
13148;DHT22;6639;50.956;4.242;2023-07-31T11:13:08;24.70;99.90
13148;DHT22;6639;50.956;4.242;2023-07-31T11:15:35;24.60;99.90
13148;DHT22;6639;50.956;4.242;2023-07-31T11:18:04;24.90;99.90
13148;DHT22;6639;50.956;4.242;2023-07-31T11:20:32;24.90;99.90
13148;DHT22;6639;50.956;4.242;2023-07-31T11:23:00;25.00;99.90
13148;DHT22;6639;50.956;4.242;2023-07-31T11:25:29;25.00;99.90
13148;DHT22;6639;50.956;4.242;2023-07-31T11:27:57;24.80;99.90
13148;DHT22;6639;50.956;4.242;2023-07-31T11:30:24;24.30;99.90
13148;DHT22;6639;50.956;4.242;2023-07-31T11:32:51;23.90;99.90
13148;DHT22;6639;50.956;4.242;2023-07-31T11:35:19;23.90;99.90
13148;DHT22;6639;50.956;4.242;2023-07-31T11:37:46;24.20;99.90
13148;DHT22;6639;50.956;4.242;2023-07-31T11:40:14;24.20;99.90
13148;DHT22;6639;50.956;4.242;2023-07-31T11:42:41;24.30;99.90
13148;DHT22;6639;50.956;4.242;2023-07-31T11:45:09;24.40;99.90
13148;DHT22;6639;50.956;4.242;2023-07-31T11:47:37;24.10;99.90
13148;DHT22;6639;50.956;4.242;2023-07-31T11:50:05;24.50;99.90
13148;DHT22;6639;50.956;4.242;2023-07-31T11:52:37;24.90;99.90
13148;DHT22;6639;50.956;4.242;2023-07-31T11:55:07;24.90;99.90
13148;DHT22;6639;50.956;4.242;2023-07-31T11:57:37;25.00;99.90
13148;DHT22;6639;50.956;4.242;2023-07-31T12:00:05;24.80;99.90
13148;DHT22;6639;50.956;4.242;2023-07-31T12:02:34;25.00;99.90
13148;DHT22;6639;50.956;4.242;2023-07-31T12:05:01;24.90;99.90
13148;DHT22;6639;50.956;4.242;2023-07-31T12:07:45;24.90;99.90
13148;DHT22;6639;50.956;4.242;2023-07-31T12:10:25;25.00;99.90
13148;DHT22;6639;50.956;4.242;2023-07-31T12:13:00;24.80;99.90
13148;DHT22;6639;50.956;4.242;2023-07-31T12:15:33;24.90;99.90
13148;DHT22;6639;50.956;4.242;2023-07-31T12:18:03;24.90;99.90
13148;DHT22;6639;50.956;4.242;2023-07-31T12:20:30;25.20;99.90
13148;DHT22;6639;50.956;4.242;2023-07-31T12:23:00;25.20;99.90
13148;DHT22;6639;50.956;4.242;2023-07-31T12:25:31;25.20;99.90
13148;DHT22;6639;50.956;4.242;2023-07-31T12:28:03;25.40;99.90
13148;DHT22;6639;50.956;4.242;2023-07-31T12:30:32;25.10;99.90
13148;DHT22;6639;50.956;4.242;2023-07-31T12:33:03;25.20;99.90
13148;DHT22;6639;50.956;4.242;2023-07-31T12:35:35;25.20;99.90
13148;DHT22;6639;50.956;4.242;2023-07-31T12:38:04;25.10;99.90
13148;DHT22;6639;50.956;4.242;2023-07-31T12:40:31;25.00;99.90
13148;DHT22;6639;50.956;4.242;2023-07-31T12:42:58;25.00;99.90
13148;DHT22;6639;50.956;4.242;2023-07-31T12:45:27;24.90;99.90
13148;DHT22;6639;50.956;4.242;2023-07-31T12:47:54;24.90;99.90
13148;DHT22;6639;50.956;4.242;2023-07-31T12:50:21;25.20;99.90
13148;DHT22;6639;50.956;4.242;2023-07-31T12:52:49;25.10;99.90
13148;DHT22;6639;50.956;4.242;2023-07-31T12:55:17;25.20;99.90
13148;DHT22;6639;50.956;4.242;2023-07-31T12:57:44;25.30;99.90
13148;DHT22;6639;50.956;4.242;2023-07-31T13:00:13;24.90;99.90
13148;DHT22;6639;50.956;4.242;2023-07-31T13:02:40;25.10;99.90
13148;DHT22;6639;50.956;4.242;2023-07-31T13:05:07;24.60;99.90
13148;DHT22;6639;50.956;4.242;2023-07-31T13:07:34;24.10;99.90
13148;DHT22;6639;50.956;4.242;2023-07-31T13:10:01;24.10;99.90
13148;DHT22;6639;50.956;4.242;2023-07-31T13:12:29;24.00;99.90
13148;DHT22;6639;50.956;4.242;2023-07-31T13:14:56;23.50;99.90
13148;DHT22;6639;50.956;4.242;2023-07-31T13:17:23;23.60;99.90
13148;DHT22;6639;50.956;4.242;2023-07-31T13:19:50;23.30;99.90
13148;DHT22;6639;50.956;4.242;2023-07-31T13:22:17;23.20;99.90
13148;DHT22;6639;50.956;4.242;2023-07-31T13:24:44;23.50;99.90
13148;DHT22;6639;50.956;4.242;2023-07-31T13:27:11;23.40;99.90
13148;DHT22;6639;50.956;4.242;2023-07-31T13:29:39;23.10;99.90
13148;DHT22;6639;50.956;4.242;2023-07-31T13:32:06;23.20;99.90
13148;DHT22;6639;50.956;4.242;2023-07-31T13:34:33;23.10;99.90
13148;DHT22;6639;50.956;4.242;2023-07-31T13:36:59;23.50;99.90
13148;DHT22;6639;50.956;4.242;2023-07-31T13:39:26;23.50;99.90
13148;DHT22;6639;50.956;4.242;2023-07-31T13:41:53;23.40;99.90
13148;DHT22;6639;50.956;4.242;2023-07-31T13:44:21;23.10;99.90
13148;DHT22;6639;50.956;4.242;2023-07-31T13:46:49;22.90;99.90
13148;DHT22;6639;50.956;4.242;2023-07-31T13:49:16;23.10;99.90
13148;DHT22;6639;50.956;4.242;2023-07-31T13:51:43;23.20;99.90
13148;DHT22;6639;50.956;4.242;2023-07-31T13:54:09;23.10;99.90
13148;DHT22;6639;50.956;4.242;2023-07-31T13:56:37;23.00;99.90
13148;DHT22;6639;50.956;4.242;2023-07-31T13:59:04;22.90;99.90
13148;DHT22;6639;50.956;4.242;2023-07-31T14:01:31;23.10;99.90
13148;DHT22;6639;50.956;4.242;2023-07-31T14:04:00;23.20;99.90
13148;DHT22;6639;50.956;4.242;2023-07-31T14:06:27;23.40;99.90
13148;DHT22;6639;50.956;4.242;2023-07-31T14:08:54;23.00;99.90
13148;DHT22;6639;50.956;4.242;2023-07-31T14:11:21;23.00;99.90
13148;DHT22;6639;50.956;4.242;2023-07-31T14:13:49;23.10;99.90
13148;DHT22;6639;50.956;4.242;2023-07-31T14:16:16;23.00;99.90
13148;DHT22;6639;50.956;4.242;2023-07-31T14:18:44;22.90;99.90
13148;DHT22;6639;50.956;4.242;2023-07-31T14:21:13;22.80;99.90
13148;DHT22;6639;50.956;4.242;2023-07-31T14:23:40;23.00;99.90
13148;DHT22;6639;50.956;4.242;2023-07-31T14:26:07;22.80;99.90
13148;DHT22;6639;50.956;4.242;2023-07-31T14:28:34;22.90;99.90
13148;DHT22;6639;50.956;4.242;2023-07-31T14:31:00;22.80;99.90
13148;DHT22;6639;50.956;4.242;2023-07-31T14:33:27;23.00;99.90
13148;DHT22;6639;50.956;4.242;2023-07-31T14:35:54;22.80;99.90
13148;DHT22;6639;50.956;4.242;2023-07-31T14:38:23;23.00;99.90
13148;DHT22;6639;50.956;4.242;2023-07-31T14:40:50;22.70;99.90
13148;DHT22;6639;50.956;4.242;2023-07-31T14:43:17;22.60;99.90
13148;DHT22;6639;50.956;4.242;2023-07-31T14:45:43;22.80;99.90
13148;DHT22;6639;50.956;4.242;2023-07-31T14:48:12;22.60;99.90
13148;DHT22;6639;50.956;4.242;2023-07-31T14:50:38;22.90;99.90
13148;DHT22;6639;50.956;4.242;2023-07-31T14:53:05;23.10;99.90
13148;DHT22;6639;50.956;4.242;2023-07-31T14:55:34;22.90;99.90
13148;DHT22;6639;50.956;4.242;2023-07-31T14:58:00;23.10;99.90
13148;DHT22;6639;50.956;4.242;2023-07-31T15:00:28;23.20;99.90
13148;DHT22;6639;50.956;4.242;2023-07-31T15:02:55;23.50;99.90
13148;DHT22;6639;50.956;4.242;2023-07-31T15:05:22;23.50;99.90
13148;DHT22;6639;50.956;4.242;2023-07-31T15:07:49;23.50;99.90
13148;DHT22;6639;50.956;4.242;2023-07-31T15:10:16;23.70;99.90
13148;DHT22;6639;50.956;4.242;2023-07-31T15:12:44;23.80;99.90
13148;DHT22;6639;50.956;4.242;2023-07-31T15:15:11;23.30;99.90
13148;DHT22;6639;50.956;4.242;2023-07-31T15:17:38;23.20;99.90
13148;DHT22;6639;50.956;4.242;2023-07-31T15:20:06;23.30;99.90
13148;DHT22;6639;50.956;4.242;2023-07-31T15:22:33;23.30;99.90
13148;DHT22;6639;50.956;4.242;2023-07-31T15:25:00;22.70;99.90
13148;DHT22;6639;50.956;4.242;2023-07-31T15:27:27;22.60;99.90
13148;DHT22;6639;50.956;4.242;2023-07-31T15:29:55;22.70;99.90
13148;DHT22;6639;50.956;4.242;2023-07-31T15:32:22;23.00;99.90
13148;DHT22;6639;50.956;4.242;2023-07-31T15:34:50;23.00;99.90
13148;DHT22;6639;50.956;4.242;2023-07-31T15:37:17;23.20;99.90
13148;DHT22;6639;50.956;4.242;2023-07-31T15:39:44;23.40;99.90
13148;DHT22;6639;50.956;4.242;2023-07-31T15:42:11;23.50;99.90
13148;DHT22;6639;50.956;4.242;2023-07-31T15:44:38;23.10;99.90
13148;DHT22;6639;50.956;4.242;2023-07-31T15:47:07;23.10;99.90
13148;DHT22;6639;50.956;4.242;2023-07-31T15:49:34;23.00;99.90